Time;durP1;ratioP1;P1;durP2;ratioP2;P2;SDS_P1;SDS_P2;PMS_P1;PMS_P2;Temp;Humidity;BMP_temperature;BMP_pressure;BME280_temperature;BME280_humidity;BME280_pressure;Samples;Min_cycle;Max_cycle;Signal;HPM_P1;HPM_P2
2024/01/12 06:31:11;;;;;;;87.70;52.90;;;;;;;-4.80;83.62;97885.73;101889;1296;636360;-75
2024/01/12 06:33:38;;;;;;;75.00;43.20;;;;;;;-4.77;83.53;97890.69;104372;1269;95845;-73
2024/01/12 06:36:06;;;;;;;75.30;43.80;;;;;;;-4.73;83.42;97892.52;104375;1270;96844;-74
2024/01/12 06:38:34;;;;;;;72.00;41.90;;;;;;;-4.66;83.52;97893.82;104728;1264;100226;-76
2024/01/12 06:41:03;;;;;;;64.50;36.50;;;;;;;-4.57;83.54;97895.11;104966;1264;100074;-74
2024/01/12 06:43:31;;;;;;;67.40;36.50;;;;;;;-4.48;83.38;97895.98;104874;1264;100709;-76
2024/01/12 06:45:58;;;;;;;59.80;33.40;;;;;;;-4.38;83.48;97897.27;104769;1257;138157;-75
2024/01/12 06:48:26;;;;;;;60.30;32.50;;;;;;;-4.26;83.48;97898.70;104992;1261;95841;-73
2024/01/12 06:50:54;;;;;;;58.40;32.10;;;;;;;-4.09;83.61;97901.01;104870;1258;100272;-73
2024/01/12 06:53:21;;;;;;;60.20;33.70;;;;;;;-3.96;83.57;97900.98;105115;1266;102117;-73
2024/01/12 06:55:49;;;;;;;64.60;39.20;;;;;;;-3.82;83.59;97902.97;104844;1260;98754;-74
2024/01/12 06:58:17;;;;;;;56.50;33.30;;;;;;;-3.74;83.41;97904.27;104759;1269;95835;-75
2024/01/12 07:00:44;;;;;;;74.40;40.00;;;;;;;-3.63;83.51;97910.67;104934;1260;95793;-74
2024/01/12 07:03:12;;;;;;;68.50;42.60;;;;;;;-3.51;83.48;97912.27;104810;1260;101650;-75
2024/01/12 07:05:40;;;;;;;69.80;42.00;;;;;;;-3.48;83.15;97915.04;104930;1261;102164;-74
2024/01/12 07:08:08;;;;;;;81.30;45.60;;;;;;;-3.49;83.02;97918.98;104852;1271;100452;-75
2024/01/12 07:10:36;;;;;;;89.50;50.30;;;;;;;-3.51;82.99;97916.69;104944;1260;96759;-75
2024/01/12 07:13:04;;;;;;;95.30;54.20;;;;;;;-3.49;82.96;97919.54;104806;1260;95841;-76
2024/01/12 07:15:31;;;;;;;93.60;51.30;;;;;;;-3.45;82.93;97916.61;104797;1257;101299;-76
2024/01/12 07:17:59;;;;;;;90.10;51.50;;;;;;;-3.44;83.01;97922.16;104883;1258;99857;-74
2024/01/12 07:20:27;;;;;;;70.30;36.80;;;;;;;-3.43;83.03;97928.80;104845;1261;100870;-76
2024/01/12 07:22:55;;;;;;;75.10;38.50;;;;;;;-3.43;82.93;97930.02;104776;1260;97078;-76
2024/01/12 07:25:22;;;;;;;81.20;40.20;;;;;;;-3.38;83.00;97929.05;104941;1260;96696;-76
2024/01/12 07:27:50;;;;;;;69.50;35.70;;;;;;;-3.34;83.08;97928.27;104799;1261;101443;-74
2024/01/12 07:30:18;;;;;;;42.60;22.80;;;;;;;-3.33;82.95;97929.63;104947;1270;102161;-76
2024/01/12 07:32:45;;;;;;;26.50;13.70;;;;;;;-3.32;82.70;97927.43;104756;1271;98470;-74
2024/01/12 07:35:13;;;;;;;21.50;11.30;;;;;;;-3.34;82.34;97928.80;104785;1270;96789;-76
2024/01/12 07:37:41;;;;;;;22.40;12.60;;;;;;;-3.34;82.21;97924.58;104840;1269;96786;-75
2024/01/12 07:40:10;;;;;;;22.70;13.00;;;;;;;-3.27;82.20;97927.41;104835;1259;101557;-75
2024/01/12 07:42:39;;;;;;;20.80;11.30;;;;;;;-3.20;82.06;97928.69;105093;1259;100189;-76
2024/01/12 07:45:08;;;;;;;20.50;11.50;;;;;;;-3.21;81.84;97924.52;105012;1257;98651;-77
2024/01/12 07:47:37;;;;;;;18.00;10.00;;;;;;;-3.25;81.57;97927.08;104808;1274;96046;-74
2024/01/12 07:50:07;;;;;;;16.20;8.70;;;;;;;-3.34;81.14;97929.13;104754;1260;96674;-74
2024/01/12 07:52:35;;;;;;;13.70;8.20;;;;;;;-3.38;80.99;97931.02;104771;1261;100874;-77
2024/01/12 07:55:03;;;;;;;18.40;11.10;;;;;;;-3.40;80.99;97933.28;104727;1271;100136;-74
2024/01/12 07:57:33;;;;;;;19.10;11.70;;;;;;;-3.36;81.10;97933.17;104837;1260;99108;-77
2024/01/12 08:00:02;;;;;;;22.20;12.30;;;;;;;-3.31;81.23;97936.63;104747;1259;97199;-74
2024/01/12 08:02:31;;;;;;;16.50;9.60;;;;;;;-3.26;81.00;97937.85;105078;1266;96856;-76
2024/01/12 08:05:08;;;;;;;19.60;11.10;;;;;;;-3.30;80.59;97936.23;104750;1259;100375;-77
2024/01/12 08:07:37;;;;;;;25.70;13.70;;;;;;;-3.25;80.81;97933.77;104740;1260;101979;-74
2024/01/12 08:10:06;;;;;;;26.40;14.90;;;;;;;-3.17;80.88;97935.11;104739;1260;99473;-75
2024/01/12 08:12:36;;;;;;;19.30;10.30;;;;;;;-3.10;80.53;97938.86;104751;1257;97071;-74
2024/01/12 08:15:04;;;;;;;16.60;9.40;;;;;;;-3.14;80.10;97934.05;104694;1276;96762;-77
2024/01/12 08:17:32;;;;;;;17.60;9.30;;;;;;;-3.21;79.88;97934.54;104775;1257;108378;-74
2024/01/12 08:20:01;;;;;;;18.60;10.00;;;;;;;-3.21;79.87;97938.41;104811;1258;100382;-75
2024/01/12 08:22:29;;;;;;;16.60;9.30;;;;;;;-3.16;80.01;97937.57;104800;1260;100379;-74
2024/01/12 08:24:56;;;;;;;22.60;11.50;;;;;;;-3.15;79.73;97934.29;104705;1260;96662;-77
2024/01/12 08:27:26;;;;;;;24.20;12.50;;;;;;;-3.10;79.81;97926.19;104715;1259;96118;-75
2024/01/12 08:29:54;;;;;;;23.20;13.20;;;;;;;-3.03;79.84;97924.36;104734;1258;101274;-76
2024/01/12 08:32:21;;;;;;;25.40;13.30;;;;;;;-2.96;79.65;97927.71;104755;1260;102379;-75
2024/01/12 08:34:49;;;;;;;31.80;16.10;;;;;;;-2.87;79.66;97924.95;104835;1257;98364;-74
2024/01/12 08:37:17;;;;;;;102.70;41.80;;;;;;;-2.78;79.73;97923.92;105001;1262;95831;-76
2024/01/12 08:39:44;;;;;;;111.60;43.50;;;;;;;-2.67;79.71;97929.73;104731;1260;96856;-74
2024/01/12 08:42:12;;;;;;;63.80;27.30;;;;;;;-2.58;79.51;97936.42;104921;1279;101404;-75
2024/01/12 08:44:40;;;;;;;37.90;20.00;;;;;;;-2.53;79.47;97938.55;104760;1260;101910;-75
2024/01/12 08:47:08;;;;;;;34.90;18.20;;;;;;;-2.49;79.37;97940.36;104689;1259;100684;-76
2024/01/12 08:49:35;;;;;;;37.90;17.90;;;;;;;-2.48;79.39;97942.44;104662;1269;96763;-76
2024/01/12 08:52:03;;;;;;;37.00;17.80;;;;;;;-2.48;79.16;97942.96;104729;1260;95864;-75
2024/01/12 08:54:31;;;;;;;28.50;15.80;;;;;;;-2.49;78.92;97951.83;104707;1260;101793;-77
2024/01/12 08:56:58;;;;;;;31.80;15.50;;;;;;;-2.55;78.87;97954.16;104699;1260;102105;-75
2024/01/12 08:59:27;;;;;;;39.20;19.30;;;;;;;-2.53;78.90;97954.44;104762;1271;98915;-76
2024/01/12 09:01:56;;;;;;;34.00;17.30;;;;;;;-2.50;78.92;97959.13;104738;1263;95806;-76
2024/01/12 09:04:25;;;;;;;32.20;16.90;;;;;;;-2.46;78.79;97962.02;104742;1259;98124;-75
2024/01/12 09:06:53;;;;;;;27.20;15.50;;;;;;;-2.37;78.98;97963.26;104840;1260;101682;-74
2024/01/12 09:09:21;;;;;;;30.90;18.00;;;;;;;-2.26;79.06;97969.77;104737;1259;102176;-74
2024/01/12 09:11:48;;;;;;;27.10;15.10;;;;;;;-2.17;78.85;97973.80;104664;1257;98502;-74
2024/01/12 09:14:16;;;;;;;24.00;13.30;;;;;;;-2.11;78.69;97973.94;104681;1256;96184;-76
2024/01/12 09:16:45;;;;;;;23.70;13.30;;;;;;;-2.07;78.60;97977.10;104784;1257;96667;-76
2024/01/12 09:19:12;;;;;;;27.20;12.90;;;;;;;-2.01;78.49;97975.56;105068;1254;101698;-77
2024/01/12 09:21:40;;;;;;;27.20;13.80;;;;;;;-1.98;78.18;97980.14;105116;1252;101870;-76
2024/01/12 09:24:09;;;;;;;29.00;15.10;;;;;;;-1.96;78.17;97978.52;105141;1256;100742;-75
2024/01/12 09:26:37;;;;;;;35.30;16.50;;;;;;;-2.02;77.77;97981.48;105015;1267;95828;-74
2024/01/12 09:29:05;;;;;;;38.30;18.10;;;;;;;-2.09;77.72;97979.21;105128;1253;95841;-76
2024/01/12 09:31:33;;;;;;;38.20;16.80;;;;;;;-2.13;77.72;97974.44;105029;1254;101768;-74
2024/01/12 09:34:01;;;;;;;32.90;17.00;;;;;;;-2.16;77.71;97979.06;104987;1256;102217;-76
2024/01/12 09:36:29;;;;;;;23.20;12.50;;;;;;;-2.16;77.67;97980.66;104921;1257;100796;-74
2024/01/12 09:38:56;;;;;;;23.80;10.20;;;;;;;-2.14;77.46;97984.58;104981;1254;95789;-74
2024/01/12 09:41:36;;;;;;;21.20;10.10;;;;;;;-2.10;77.54;97990.20;105335;1252;95844;-76
2024/01/12 09:44:07;;;;;;;22.80;10.70;;;;;;;-2.09;77.24;97993.69;105011;1258;101591;-76
2024/01/12 09:46:43;;;;;;;17.90;8.50;;;;;;;-2.11;76.80;97988.73;105087;1256;102271;-74
2024/01/12 09:49:11;;;;;;;25.00;11.40;;;;;;;-2.23;76.14;97985.25;105007;1257;100725;-75
2024/01/12 09:51:39;;;;;;;23.80;12.00;;;;;;;-2.42;75.59;97983.94;104938;1256;96084;-76
2024/01/12 09:54:06;;;;;;;21.30;11.40;;;;;;;-2.57;75.86;97994.02;105325;1257;96760;-74
2024/01/12 09:56:34;;;;;;;19.70;9.70;;;;;;;-2.61;76.11;97996.77;105039;1256;100535;-76
2024/01/12 09:59:03;;;;;;;21.40;11.10;;;;;;;-2.68;75.68;97998.02;105006;1256;101881;-76
2024/01/12 10:01:32;;;;;;;20.00;10.70;;;;;;;-2.76;75.80;97996.46;105087;1253;98523;-76
2024/01/12 10:04:00;;;;;;;26.20;11.70;;;;;;;-2.82;75.68;98000.87;105200;1253;95838;-76
2024/01/12 10:06:27;;;;;;;26.20;11.40;;;;;;;-2.91;75.45;98002.37;105122;1256;95835;-74
2024/01/12 10:08:55;;;;;;;29.20;11.70;;;;;;;-2.98;75.54;98007.66;105203;1270;99970;-76
2024/01/12 10:11:23;;;;;;;24.80;11.70;;;;;;;-2.97;75.70;98009.18;105064;1254;100039;-75
2024/01/12 10:13:51;;;;;;;26.10;12.10;;;;;;;-2.88;75.90;98009.02;105327;1254;100533;-74
2024/01/12 10:16:20;;;;;;;25.00;11.10;;;;;;;-2.79;76.01;98004.15;105089;1256;96090;-76
2024/01/12 10:18:49;;;;;;;27.10;11.30;;;;;;;-2.69;76.05;98005.98;104993;1260;96616;-74
2024/01/12 10:21:18;;;;;;;28.10;12.70;;;;;;;-2.62;75.70;97994.38;105029;1257;101659;-75
2024/01/12 10:23:45;;;;;;;32.70;14.50;;;;;;;-2.63;75.30;97995.16;104946;1254;102085;-74
2024/01/12 10:26:16;;;;;;;32.90;14.80;;;;;;;-2.60;75.29;97992.11;104968;1257;100491;-77
2024/01/12 10:28:44;;;;;;;28.40;13.30;;;;;;;-2.57;75.25;97988.16;105080;1257;95845;-74
2024/01/12 10:31:12;;;;;;;34.50;14.90;;;;;;;-2.55;74.99;97988.58;104940;1260;95816;-75
2024/01/12 10:33:42;;;;;;;36.00;15.20;;;;;;;-2.55;74.95;97984.84;104920;1260;101361;-76
2024/01/12 10:36:16;;;;;;;31.40;13.70;;;;;;;-2.47;74.94;97973.16;105026;1258;109278;-76
2024/01/12 10:38:46;;;;;;;28.90;15.60;;;;;;;-2.41;74.84;97968.86;104864;1257;98432;-75
2024/01/12 10:41:16;;;;;;;35.70;15.80;;;;;;;-2.38;74.72;97969.28;105016;1256;96560;-77
2024/01/12 10:43:46;;;;;;;30.70;14.40;;;;;;;-2.34;74.63;97967.59;105136;1259;97172;-74
2024/01/12 10:46:30;;;;;;;33.20;14.70;;;;;;;-2.33;74.47;97968.39;105203;1258;103216;-76
2024/01/12 10:49:07;;;;;;;29.70;13.60;;;;;;;-2.31;74.30;97968.08;105260;1257;101812;-77
2024/01/12 10:51:39;;;;;;;22.10;12.10;;;;;;;-2.30;74.16;97969.17;105158;1259;100718;-77
2024/01/12 10:54:20;;;;;;;19.90;9.90;;;;;;;-2.37;73.65;97969.04;104960;1259;96606;-76
2024/01/12 10:56:49;;;;;;;21.60;10.70;;;;;;;-2.47;73.37;97958.92;104928;1257;98068;-76
2024/01/12 10:59:17;;;;;;;23.40;10.60;;;;;;;-2.60;73.35;97961.40;104946;1258;102994;-77
2024/01/12 11:01:45;;;;;;;28.70;12.00;;;;;;;-2.58;73.60;97961.67;105005;1257;100347;-75
2024/01/12 11:04:14;;;;;;;22.90;12.20;;;;;;;-2.54;73.59;97959.78;104965;1258;101157;-75
2024/01/12 11:06:46;;;;;;;26.20;12.90;;;;;;;-2.48;73.59;97957.89;105024;1276;97170;-76
2024/01/12 11:09:16;;;;;;;28.10;11.90;;;;;;;-2.43;73.61;97956.88;105027;1258;96589;-75
2024/01/12 11:11:50;;;;;;;29.00;12.00;;;;;;;-2.43;73.19;97952.94;104996;1259;102969;-74
2024/01/12 11:14:20;;;;;;;23.30;11.90;;;;;;;-2.33;73.45;97949.52;105071;1256;109017;-76
2024/01/12 11:16:47;;;;;;;27.20;12.60;;;;;;;-2.16;73.41;97943.05;105103;1260;100924;-76
2024/01/12 11:19:15;;;;;;;31.40;14.00;;;;;;;-1.96;73.44;97946.64;105031;1257;96683;-76
2024/01/12 11:21:43;;;;;;;29.30;14.70;;;;;;;-1.83;73.10;97949.48;105164;1257;96984;-75
2024/01/12 11:24:12;;;;;;;27.40;14.20;;;;;;;-1.81;72.81;97953.86;105161;1274;102769;-76
2024/01/12 11:26:41;;;;;;;25.80;13.20;;;;;;;-1.82;72.64;97957.84;104985;1270;100284;-76
2024/01/12 11:29:14;;;;;;;26.20;13.30;;;;;;;-1.89;72.35;97952.91;105085;1260;100554;-74
2024/01/12 11:31:52;;;;;;;30.40;12.10;;;;;;;-1.92;72.55;97943.99;105127;1257;97547;-77
2024/01/12 11:34:19;;;;;;;26.60;12.40;;;;;;;-1.88;72.58;97938.88;105179;1259;97512;-76
2024/01/12 11:36:58;;;;;;;26.80;12.00;;;;;;;-1.84;72.71;97927.26;105161;1253;103088;-77
2024/01/12 11:39:26;;;;;;;26.60;12.70;;;;;;;-1.76;72.72;97921.20;105169;1257;101973;-75
2024/01/12 11:41:56;;;;;;;29.40;13.20;;;;;;;-1.76;72.35;97920.20;105075;1256;98925;-74
2024/01/12 11:44:27;;;;;;;30.30;15.70;;;;;;;-1.74;72.56;97921.58;105240;1252;96552;-74
2024/01/12 11:46:56;;;;;;;35.10;18.70;;;;;;;-1.61;72.84;97921.04;105103;1254;98356;-76
2024/01/12 11:49:24;;;;;;;37.10;17.70;;;;;;;-1.50;72.67;97918.38;105044;1254;103039;-76
2024/01/12 11:52:01;;;;;;;32.90;15.80;;;;;;;-1.38;72.60;97909.33;105395;1255;100154;-76
2024/01/12 11:54:29;;;;;;;34.60;17.50;;;;;;;-1.35;72.37;97901.61;105174;1256;100810;-75
2024/01/12 11:56:57;;;;;;;35.00;17.00;;;;;;;-1.28;72.50;97897.00;105105;1254;97247;-76
2024/01/12 11:59:25;;;;;;;34.30;17.60;;;;;;;-1.24;72.23;97891.00;105137;1267;97513;-75
2024/01/12 12:01:52;;;;;;;28.60;14.00;;;;;;;-1.24;72.22;97884.67;105124;1257;102813;-74
2024/01/12 12:04:20;;;;;;;28.00;13.70;;;;;;;-1.24;72.05;97876.67;105082;1257;100658;-74
2024/01/12 12:06:49;;;;;;;25.80;13.40;;;;;;;-1.24;71.90;97873.35;105196;1255;100840;-76
2024/01/12 12:09:18;;;;;;;28.80;13.90;;;;;;;-1.25;71.88;97869.38;105569;1275;97475;-75
2024/01/12 12:11:46;;;;;;;21.00;11.60;;;;;;;-1.22;71.84;97861.17;105288;1255;97441;-75
2024/01/12 12:14:13;;;;;;;23.40;11.80;;;;;;;-1.20;71.50;97857.84;105111;1265;102807;-75
2024/01/12 12:16:41;;;;;;;23.20;13.30;;;;;;;-1.24;71.45;97856.77;105107;1255;102149;-76
2024/01/12 12:19:09;;;;;;;28.00;12.90;;;;;;;-1.22;71.78;97856.80;105313;1256;100768;-75
2024/01/12 12:21:37;;;;;;;27.20;13.10;;;;;;;-1.14;71.93;97850.06;105057;1254;96520;-75
2024/01/12 12:24:05;;;;;;;22.90;12.80;;;;;;;-1.02;71.71;97843.60;105102;1262;98510;-76
2024/01/12 12:26:33;;;;;;;22.30;12.20;;;;;;;-0.99;71.36;97835.64;105129;1255;102774;-75
2024/01/12 12:29:01;;;;;;;24.50;12.80;;;;;;;-0.97;71.42;97831.54;105048;1267;102110;-74
2024/01/12 12:31:31;;;;;;;32.20;16.00;;;;;;;-0.97;71.24;97833.14;105056;1254;100662;-75
2024/01/12 12:33:59;;;;;;;31.00;15.80;;;;;;;-0.91;71.49;97831.95;105067;1256;96565;-76
2024/01/12 12:36:30;;;;;;;22.00;12.10;;;;;;;-0.82;71.35;97827.45;105038;1265;96760;-75
2024/01/12 12:38:58;;;;;;;23.80;11.70;;;;;;;-0.83;70.67;97826.07;105573;1255;103096;-76
2024/01/12 12:41:26;;;;;;;23.30;11.00;;;;;;;-0.83;70.69;97817.42;105214;1257;100378;-75
2024/01/12 12:43:55;;;;;;;25.80;11.70;;;;;;;-0.83;70.42;97817.98;105200;1256;100638;-76
2024/01/12 12:46:25;;;;;;;20.60;10.40;;;;;;;-0.91;70.19;97822.66;105374;1256;97608;-75
2024/01/12 12:48:56;;;;;;;21.60;10.20;;;;;;;-0.96;70.19;97826.00;105154;1251;97051;-76
2024/01/12 12:51:23;;;;;;;19.80;10.80;;;;;;;-0.96;70.13;97825.60;105271;1251;102931;-78
2024/01/12 12:53:51;;;;;;;24.00;11.40;;;;;;;-0.98;69.93;97822.26;105490;1251;102028;-77
2024/01/12 12:56:19;;;;;;;22.20;11.90;;;;;;;-0.98;69.89;97824.91;105488;1257;100716;-78
2024/01/12 12:58:47;;;;;;;22.40;9.70;;;;;;;-0.94;69.97;97823.70;105206;1257;96549;-78
2024/01/12 13:01:15;;;;;;;20.10;10.00;;;;;;;-0.94;69.72;97820.11;105096;1251;97058;-76
2024/01/12 13:03:42;;;;;;;32.40;12.90;;;;;;;-0.97;69.45;97817.80;105157;1251;102738;-75
2024/01/12 13:06:10;;;;;;;18.60;9.70;;;;;;;-1.01;69.56;97813.14;105409;1255;102186;-77
2024/01/12 13:08:38;;;;;;;35.70;15.60;;;;;;;-0.95;69.73;97814.93;105140;1257;100525;-77
2024/01/12 13:11:06;;;;;;;33.10;12.40;;;;;;;-0.90;69.59;97821.60;105201;1257;96791;-76
2024/01/12 13:13:34;;;;;;;30.60;12.70;;;;;;;-0.91;69.33;97823.24;105111;1251;97480;-77
2024/01/12 13:16:02;;;;;;;35.00;13.30;;;;;;;-0.94;69.22;97821.88;105335;1265;102452;-77
2024/01/12 13:18:29;;;;;;;22.90;10.80;;;;;;;-0.96;69.17;97821.69;106448;1254;101968;-76
2024/01/12 13:20:57;;;;;;;25.60;11.40;;;;;;;-0.94;69.30;97826.67;105187;1257;98655;-75
2024/01/12 13:23:25;;;;;;;27.20;12.50;;;;;;;-0.93;69.25;97824.70;105526;1256;97055;-77
2024/01/12 13:25:52;;;;;;;26.40;12.30;;;;;;;-0.95;69.21;97827.14;105313;1257;97150;-78
2024/01/12 13:28:20;;;;;;;29.70;12.30;;;;;;;-0.95;69.28;97824.48;105194;1256;109355;-76
2024/01/12 13:30:48;;;;;;;26.40;12.30;;;;;;;-0.94;69.10;97820.12;105156;1251;102144;-76
2024/01/12 13:33:16;;;;;;;22.40;11.10;;;;;;;-0.94;68.99;97820.34;105199;1251;98596;-77
2024/01/12 13:35:43;;;;;;;30.90;12.30;;;;;;;-1.00;68.80;97815.23;105321;1251;96709;-75
2024/01/12 13:38:11;;;;;;;30.60;12.90;;;;;;;-1.02;68.90;97817.14;105199;1254;97839;-77
2024/01/12 13:40:39;;;;;;;32.30;13.90;;;;;;;-0.95;68.98;97814.09;105079;1252;102773;-76
2024/01/12 13:43:07;;;;;;;27.50;12.40;;;;;;;-0.91;68.87;97806.48;105135;1257;109348;-76
2024/01/12 13:45:35;;;;;;;23.50;11.10;;;;;;;-0.81;69.02;97812.14;105107;1257;100731;-75
2024/01/12 13:48:05;;;;;;;21.40;11.00;;;;;;;-0.71;68.74;97810.36;105149;1256;96781;-76
2024/01/12 13:50:33;;;;;;;26.10;11.60;;;;;;;-0.65;68.57;97808.80;105143;1257;97195;-77
2024/01/12 13:53:01;;;;;;;23.80;11.10;;;;;;;-0.66;68.24;97809.24;105132;1265;102950;-76
2024/01/12 13:55:29;;;;;;;30.70;14.10;;;;;;;-0.64;68.29;97816.02;105166;1257;102262;-75
2024/01/12 13:57:57;;;;;;;28.80;13.10;;;;;;;-0.56;68.34;97818.80;105054;1261;100535;-77
2024/01/12 14:00:25;;;;;;;28.40;12.80;;;;;;;-0.53;67.96;97816.93;105093;1251;97457;-77
2024/01/12 14:02:53;;;;;;;25.70;12.80;;;;;;;-0.58;67.85;97805.15;104989;1260;97447;-76
2024/01/12 14:05:21;;;;;;;24.00;12.20;;;;;;;-0.63;67.84;97802.42;105128;1251;102949;-76
2024/01/12 14:07:51;;;;;;;26.50;11.80;;;;;;;-0.66;67.89;97798.16;105209;1255;102161;-75
2024/01/12 14:10:19;;;;;;;26.00;12.40;;;;;;;-0.70;67.88;97799.50;105082;1256;101583;-76
2024/01/12 14:12:47;;;;;;;31.00;13.00;;;;;;;-0.73;67.91;97796.26;105090;1255;97468;-75
2024/01/12 14:15:15;;;;;;;27.00;13.50;;;;;;;-0.77;67.81;97799.05;105196;1254;97763;-77
2024/01/12 14:17:42;;;;;;;27.80;13.30;;;;;;;-0.82;67.75;97798.30;105088;1257;103294;-78
2024/01/12 14:20:12;;;;;;;28.50;14.20;;;;;;;-0.91;67.62;97803.44;105128;1256;102544;-77
2024/01/12 14:22:40;;;;;;;25.40;12.50;;;;;;;-1.04;67.60;97813.76;105131;1251;100519;-78
2024/01/12 14:25:09;;;;;;;27.50;12.50;;;;;;;-1.12;67.78;97811.45;105147;1251;97483;-78
2024/01/12 14:27:37;;;;;;;25.80;13.50;;;;;;;-1.14;67.97;97797.66;105236;1255;99083;-77
2024/01/12 14:30:06;;;;;;;31.00;16.40;;;;;;;-1.15;68.08;97806.20;105205;1257;102859;-78
2024/01/12 14:32:34;;;;;;;34.30;16.60;;;;;;;-1.17;68.20;97801.23;105141;1255;102250;-76
2024/01/12 14:35:02;;;;;;;30.90;16.00;;;;;;;-1.21;68.17;97812.99;105407;1257;100667;-78
2024/01/12 14:37:30;;;;;;;34.20;16.90;;;;;;;-1.25;68.20;97813.25;105113;1257;96659;-76
2024/01/12 14:39:58;;;;;;;32.30;16.10;;;;;;;-1.31;68.31;97807.40;105089;1254;97306;-77
2024/01/12 14:42:26;;;;;;;35.60;17.40;;;;;;;-1.33;68.41;97803.63;105169;1257;103077;-78
2024/01/12 14:44:54;;;;;;;36.50;18.40;;;;;;;-1.31;68.48;97808.56;105202;1254;100180;-77
2024/01/12 14:47:21;;;;;;;37.80;19.00;;;;;;;-1.28;68.63;97810.61;105073;1257;100565;-76
2024/01/12 14:49:49;;;;;;;41.80;21.60;;;;;;;-1.24;68.77;97809.05;105116;1257;97880;-78
2024/01/12 14:52:18;;;;;;;37.70;18.80;;;;;;;-1.19;68.86;97815.55;105166;1256;96920;-75
2024/01/12 14:54:47;;;;;;;33.10;17.60;;;;;;;-1.27;68.48;97817.10;105402;1255;102931;-77
2024/01/12 14:57:15;;;;;;;34.10;18.70;;;;;;;-1.37;68.48;97820.29;105100;1257;100029;-75
2024/01/12 14:59:43;;;;;;;38.40;18.90;;;;;;;-1.39;68.77;97825.69;105097;1251;98407;-79
2024/01/12 15:02:11;;;;;;;39.90;19.50;;;;;;;-1.37;68.96;97821.83;105132;1256;97893;-77
2024/01/12 15:04:38;;;;;;;39.10;18.30;;;;;;;-1.39;68.91;97804.16;105263;1256;97844;-75
2024/01/12 15:07:07;;;;;;;40.00;20.30;;;;;;;-1.43;69.02;97795.81;105224;1257;103033;-77
2024/01/12 15:09:35;;;;;;;44.10;21.90;;;;;;;-1.46;68.97;97791.17;105212;1256;100016;-75
2024/01/12 15:12:03;;;;;;;43.20;20.50;;;;;;;-1.46;68.99;97792.21;105221;1257;100377;-77
2024/01/12 15:14:31;;;;;;;36.20;19.10;;;;;;;-1.47;68.96;97787.39;105330;1251;96766;-78
2024/01/12 15:16:59;;;;;;;39.80;19.70;;;;;;;-1.50;69.02;97782.52;105246;1257;97063;-77
2024/01/12 15:19:27;;;;;;;43.00;22.50;;;;;;;-1.57;69.03;97782.55;105252;1256;102978;-78
2024/01/12 15:21:55;;;;;;;46.00;23.00;;;;;;;-1.63;68.99;97790.79;105088;1257;102158;-76
2024/01/12 15:24:23;;;;;;;40.80;18.90;;;;;;;-1.67;69.06;97793.95;105225;1251;98750;-76
2024/01/12 15:26:50;;;;;;;27.80;14.40;;;;;;;-1.71;69.02;97794.08;105178;1265;97842;-75
2024/01/12 15:29:19;;;;;;;30.20;15.30;;;;;;;-1.74;68.85;97797.03;105199;1257;97873;-78
2024/01/12 15:31:46;;;;;;;30.80;15.30;;;;;;;-1.75;69.12;97805.96;105198;1256;102871;-78
2024/01/12 15:34:14;;;;;;;27.10;15.30;;;;;;;-1.77;68.97;97808.60;105168;1251;102387;-76
2024/01/12 15:36:42;;;;;;;33.00;16.30;;;;;;;-1.84;69.05;97817.71;105077;1251;101116;-75
2024/01/12 15:39:10;;;;;;;32.50;17.60;;;;;;;-1.84;69.06;97821.66;105232;1264;97214;-76
2024/01/12 15:41:38;;;;;;;37.50;19.70;;;;;;;-1.86;69.13;97817.54;105214;1255;98392;-76
2024/01/12 15:44:05;;;;;;;44.90;22.40;;;;;;;-1.85;69.37;97817.30;105075;1261;110602;-78
2024/01/12 15:46:34;;;;;;;45.90;27.20;;;;;;;-1.80;69.46;97819.54;105340;1265;102249;-76
2024/01/12 15:49:01;;;;;;;45.80;25.60;;;;;;;-1.73;69.60;97820.63;105291;1255;99047;-78
2024/01/12 15:51:29;;;;;;;35.70;19.30;;;;;;;-1.67;69.66;97823.06;105206;1264;96744;-76
2024/01/12 15:53:57;;;;;;;31.40;17.50;;;;;;;-1.67;69.49;97821.45;105140;1257;97070;-77
2024/01/12 15:56:24;;;;;;;35.10;17.60;;;;;;;-1.68;69.42;97816.58;105378;1255;103054;-75
2024/01/12 15:58:53;;;;;;;30.10;17.50;;;;;;;-1.64;69.56;97808.70;105102;1257;102233;-75
2024/01/12 16:01:25;;;;;;;38.10;18.40;;;;;;;-1.65;69.41;97804.18;105232;1257;100698;-76
2024/01/12 16:03:53;;;;;;;34.90;18.90;;;;;;;-1.68;69.45;97810.61;105112;1257;97828;-78
2024/01/12 16:06:20;;;;;;;36.40;18.70;;;;;;;-1.69;69.67;97811.48;105219;1251;97013;-76
2024/01/12 16:08:48;;;;;;;33.80;18.60;;;;;;;-1.73;69.67;97814.23;105172;1251;103068;-76
2024/01/12 16:11:23;;;;;;;42.30;21.40;;;;;;;-1.76;69.56;97815.00;105155;1257;102172;-75
2024/01/12 16:13:50;;;;;;;50.10;24.50;;;;;;;-1.81;69.63;97811.01;105149;1253;100831;-75
2024/01/12 16:16:18;;;;;;;51.30;22.80;;;;;;;-1.89;69.60;97806.73;105070;1257;97888;-77
2024/01/12 16:18:46;;;;;;;54.60;22.70;;;;;;;-1.95;69.81;97802.97;105132;1257;97030;-78
2024/01/12 16:21:32;;;;;;;70.40;30.50;;;;;;;-1.96;70.04;97793.88;105064;1255;102394;-77
2024/01/12 16:24:01;;;;;;;73.00;37.20;;;;;;;-1.98;70.03;97790.67;105159;1257;102191;-77
2024/01/12 16:26:29;;;;;;;76.80;39.30;;;;;;;-2.00;70.19;97789.09;105163;1256;100540;-76
2024/01/12 16:28:57;;;;;;;50.40;24.80;;;;;;;-1.99;70.10;97790.22;105115;1257;96644;-78
2024/01/12 16:31:24;;;;;;;65.40;28.80;;;;;;;-2.00;70.11;97786.64;105137;1256;97013;-78
2024/01/12 16:33:52;;;;;;;77.00;33.70;;;;;;;-2.00;70.29;97789.40;105096;1257;102941;-75
2024/01/12 16:36:20;;;;;;;60.80;30.00;;;;;;;-1.96;70.31;97791.59;105133;1253;101843;-77
2024/01/12 16:38:47;;;;;;;50.40;22.10;;;;;;;-1.90;70.40;97789.45;105080;1257;98719;-75
2024/01/12 16:41:16;;;;;;;53.20;23.20;;;;;;;-1.86;70.31;97791.27;105336;1257;97042;-75
2024/01/12 16:43:43;;;;;;;53.40;21.50;;;;;;;-1.84;70.35;97791.30;105111;1255;97089;-74
2024/01/12 16:46:11;;;;;;;66.10;29.90;;;;;;;-1.84;70.29;97786.70;105147;1255;102773;-75
2024/01/12 16:48:41;;;;;;;49.10;22.90;;;;;;;-1.85;70.17;97786.27;105185;1257;100007;-74
2024/01/12 16:51:08;;;;;;;41.10;19.90;;;;;;;-1.90;69.99;97784.16;105083;1257;100419;-75
2024/01/12 16:53:36;;;;;;;39.30;19.70;;;;;;;-1.94;69.96;97772.69;105124;1256;96533;-77
2024/01/12 16:56:04;;;;;;;40.10;19.50;;;;;;;-1.93;70.06;97767.52;105157;1266;97965;-75
2024/01/12 16:58:32;;;;;;;44.20;21.70;;;;;;;-1.93;70.06;97768.25;105120;1256;102982;-77
2024/01/12 17:00:59;;;;;;;47.30;21.80;;;;;;;-1.96;70.00;97765.09;105111;1256;102127;-77
2024/01/12 17:03:27;;;;;;;41.80;18.60;;;;;;;-1.99;69.84;97763.24;105092;1257;100527;-76
2024/01/12 17:05:55;;;;;;;39.20;20.10;;;;;;;-2.06;69.76;97756.63;105098;1257;97461;-76
2024/01/12 17:08:22;;;;;;;40.80;20.40;;;;;;;-2.13;69.53;97755.05;105090;1256;97728;-76
2024/01/12 17:10:50;;;;;;;39.90;18.60;;;;;;;-2.20;69.42;97756.17;105136;1261;101213;-77
2024/01/12 17:13:18;;;;;;;39.90;18.70;;;;;;;-2.25;69.45;97756.56;105130;1266;102097;-75
2024/01/12 17:15:47;;;;;;;44.90;21.40;;;;;;;-2.25;69.36;97758.17;105083;1255;100786;-74
2024/01/12 17:18:15;;;;;;;49.90;22.40;;;;;;;-2.26;69.34;97761.35;105059;1257;97768;-77
2024/01/12 17:20:43;;;;;;;40.40;20.20;;;;;;;-2.26;69.30;97758.03;105266;1255;96587;-77
2024/01/12 17:23:11;;;;;;;50.70;22.90;;;;;;;-2.32;69.12;97753.92;105131;1251;102850;-75
2024/01/12 17:25:39;;;;;;;56.90;27.40;;;;;;;-2.38;69.23;97753.37;105109;1251;102084;-77
2024/01/12 17:28:07;;;;;;;74.20;33.30;;;;;;;-2.39;69.39;97749.90;105166;1253;98550;-77
2024/01/12 17:30:35;;;;;;;57.10;25.10;;;;;;;-2.40;69.23;97751.56;105097;1257;97441;-76
2024/01/12 17:33:02;;;;;;;70.90;31.60;;;;;;;-2.44;69.40;97755.96;105167;1265;96987;-77
2024/01/12 17:35:30;;;;;;;67.90;28.60;;;;;;;-2.45;69.65;97753.28;105318;1256;103049;-77
2024/01/12 17:37:58;;;;;;;84.70;36.00;;;;;;;-2.46;69.68;97759.68;105183;1258;102128;-75
2024/01/12 17:40:25;;;;;;;85.10;35.70;;;;;;;-2.48;69.77;97755.06;105065;1254;100541;-76